Latest Weather Observations for Kununurra Airport

IDD60801

Issued at 8:31 pm CST Monday 25 May 2015 (issued every 30 minutes, with the page automatically refreshed every 10 minutes)

About weather observations | Map of weather stations | Latest weather observations for NT | Other Formats
Station Details ID: 002056 Name: KUNUNURRA AERO Lat: -15.78 Lon: 128.71 Height: 44.0 m
Data from the previous 72 hours. | See also: Recent months at Kununurra Airport
Date/Time
CST
Temp
°C
App
Temp
°C
Dew
Point
Rel
Hum
%
Delta-T
°C
Wind Press
QNH
hPa
Press
MSL
hPa
Rain
since 9 am
mm
Dir
 
Spd
km/h
Gust
km/h
Spd
kts
Gust
kts
25/08:30pm 21.5 22.1 11.9 54 5.4 CALM 0 0 0 0 1016.9 1016.7 0.0
25/08:00pm 21.6 21.6 11.3 52 5.7 SSE 2 7 1 4 1016.6 1016.4 0.0
25/07:30pm 23.7 23.0 12.1 48 6.6 S 7 11 4 6 1016.1 1015.9 0.0
25/07:00pm 24.8 25.2 11.3 42 7.6 CALM 0 0 0 0 1015.7 1015.5 0.0
25/06:30pm 27.6 27.0 9.1 31 10.2 SW 2 6 1 3 1015.4 1015.2 0.0
25/06:00pm 30.7 28.4 5.8 21 13.2 SW 7 7 4 4 1015.0 1014.8 0.0
25/05:30pm 31.8 28.5 0.4 13 15.3 SSW 7 11 4 6 1014.7 1014.5 0.0
25/05:00pm 32.1 28.8 -0.1 12 15.6 S 7 11 4 6 1014.5 1014.3 0.0
25/04:30pm 32.4 29.3 0.2 12 15.7 ENE 6 11 3 6 1014.3 1014.1 0.0
25/04:00pm 32.1 28.3 -1.1 12 15.8 SSE 9 13 5 7 1014.5 1014.3 0.0
25/03:30pm 32.5 28.5 -2.4 10 16.3 SW 9 22 5 12 1014.6 1014.4 0.0
25/03:00pm 31.7 27.6 -3.3 10 16.0 SSE 9 17 5 9 1014.8 1014.6 0.0
25/02:30pm 31.2 27.4 -0.7 13 15.2 S 9 13 5 7 1015.1 1014.9 0.0
25/02:00pm 31.0 26.6 -2.3 11 15.4 S 11 17 6 9 1015.7 1015.5 0.0
25/01:30pm 30.5 26.6 -1.3 12 14.9 SSE 9 15 5 8 1016.3 1016.1 0.0
25/01:00pm 29.6 24.9 -1.8 13 14.5 SE 13 19 7 10 1017.0 1016.8 0.0
25/12:30pm 29.5 23.7 -4.2 11 14.9 ESE 17 26 9 14 1017.6 1017.4 0.0
25/12:00pm 28.3 22.6 -3.6 12 14.1 E 17 22 9 12 1018.2 1018.0 0.0
25/11:30am 28.4 22.3 -3.8 12 14.2 ESE 19 26 10 14 1018.9 1018.6 0.0
25/11:00am 27.4 21.1 -4.1 12 13.7 ESE 20 28 11 15 1019.2 1018.9 0.0
25/10:30am 26.9 20.5 -4.5 12 13.5 ESE 20 32 11 17 1019.3 1019.0 0.0
25/10:00am 26.1 21.9 -0.8 17 12.3 SE 11 17 6 9 1019.5 1019.2 0.0
25/09:30am 24.8 21.3 1.5 21 11.0 SE 9 13 5 7 1019.4 1019.1 0.0
25/09:00am 22.4 19.4 4.2 30 8.9 S 9 13 5 7 1019.3 1019.0 0.0
25/08:30am 20.8 20.5 8.6 45 6.4 CALM 0 0 0 0 1019.3 1019.0 0.0
25/08:00am 16.0 14.9 8.5 61 3.8 SW 4 7 2 4 1018.9 1018.6 0.0
25/07:30am 13.7 13.2 7.8 67 2.9 CALM 0 0 0 0 1018.2 1018.0 0.0
25/07:00am 14.2 13.7 8.0 66 3.1 CALM 0 0 0 0 1017.8 1017.6 0.0
25/06:30am 13.9 13.5 8.3 69 2.8 CALM 0 0 0 0 1017.5 1017.3 0.0
25/06:00am 15.0 14.1 6.1 55 4.3 CALM 0 0 0 0 1017.2 1017.0 0.0
25/05:30am 14.6 13.8 6.3 57 4.0 CALM 0 0 0 0 1017.0 1016.8 0.0
25/05:00am 15.9 15.0 6.0 52 4.8 CALM 0 4 0 2 1016.9 1016.7 0.0
25/04:30am 18.4 15.7 5.5 42 6.3 SSE 9 15 5 8 1016.8 1016.6 0.0
25/04:00am 21.1 17.4 2.5 29 8.7 SSE 11 17 6 9 1016.8 1016.6 0.0
25/03:30am 21.9 18.6 2.6 28 9.1 SSE 9 17 5 9 1016.7 1016.5 0.0
25/03:00am 17.3 15.2 4.1 41 6.2 SE 4 7 2 4 1017.0 1016.8 0.0
25/02:30am 17.7 15.0 5.5 44 5.9 ESE 9 9 5 5 1017.0 1016.8 0.0
25/02:00am 18.7 15.0 4.5 39 6.8 E 13 15 7 8 1017.0 1016.8 0.0
25/01:48am 19.4 15.3 4.4 37 7.2 E 15 20 8 11 1017.0 1016.8 0.0
25/01:30am 24.4 18.4 -3.2 16 11.9 ESE 19 26 10 14 1017.0 1016.8 0.0
25/01:00am 23.8 17.9 -1.9 18 11.3 ESE 19 26 10 14 1017.0 1016.8 0.0
25/12:50am 23.7 18.4 -0.4 20 10.9 ESE 17 24 9 13 1017.0 1016.8 0.0
25/12:30am 18.4 15.3 7.1 47 5.7 SE 13 15 7 8 1017.2 1017.0 0.0
25/12:00am 17.7 16.8 10.6 63 3.8 SE 6 6 3 3 1017.4 1017.2 0.0
 
Date/Time
CST
Temp
°C
App
Temp
°C
Dew
Point
Rel
Hum
%
Delta-T
°C
Wind Press
QNH
hPa
Press
MSL
hPa
Rain
since 9 am
mm
Dir
 
Spd
km/h
Gust
km/h
Spd
kts
Gust
kts
24/11:30pm 20.9 18.3 5.9 37 7.5 ESE 9 11 5 6 1017.5 1017.3 0.0
24/11:00pm 18.0 17.6 11.2 64 3.7 SE 4 9 2 5 1017.4 1017.2 0.0
24/10:30pm 17.6 17.8 10.5 63 3.8 CALM 0 0 0 0 1017.5 1017.3 0.0
24/10:00pm 18.2 18.4 10.6 61 4.1 CALM 0 0 0 0 1017.1 1016.9 0.0
24/09:30pm 18.1 18.2 10.2 60 4.2 CALM 0 0 0 0 1017.0 1016.8 0.0
24/09:00pm 19.4 19.9 11.6 60 4.3 CALM 0 0 0 0 1016.7 1016.5 0.0
24/08:30pm 19.8 20.2 11.2 57 4.7 CALM 0 0 0 0 1016.3 1016.1 0.0
24/08:00pm 21.0 21.3 11.0 52 5.5 CALM 0 0 0 0 1015.9 1015.7 0.0
24/07:30pm 22.4 21.6 11.0 48 6.3 SE 6 7 3 4 1015.4 1015.2 0.0
24/07:00pm 23.5 22.6 10.7 44 7.1 SE 6 7 3 4 1015.1 1014.9 0.0
24/06:30pm 27.1 24.6 6.6 27 10.8 S 9 11 5 6 1014.8 1014.6 0.0
24/06:00pm 29.2 26.5 3.8 19 12.9 SE 7 9 4 5 1014.4 1014.2 0.0
24/05:30pm 30.6 26.7 -1.4 12 15.0 ESE 9 11 5 6 1014.4 1014.2 0.0
24/05:00pm 31.2 27.3 -1.2 12 15.3 SE 9 13 5 7 1014.2 1014.0 0.0
24/04:30pm 30.9 26.9 -2.0 12 15.3 S 9 15 5 8 1014.2 1014.0 0.0
24/04:00pm 31.2 27.2 -2.6 11 15.6 E 9 13 5 7 1014.1 1013.9 0.0
24/03:30pm 30.7 26.0 -1.6 12 15.1 S 13 19 7 10 1014.2 1014.0 0.0
24/03:00pm 30.8 26.1 -1.8 12 15.2 S 13 20 7 11 1014.4 1014.2 0.0
24/02:30pm 30.1 25.5 -3.9 11 15.2 SE 11 17 6 9 1014.7 1014.5 0.0
24/02:00pm 30.0 25.1 -3.7 11 15.1 SSE 13 19 7 10 1015.3 1015.1 0.0
24/01:30pm 29.5 24.6 -3.1 12 14.7 SSE 13 19 7 10 1015.7 1015.5 0.0
24/01:00pm 28.4 22.7 -3.7 12 14.2 ESE 17 24 9 13 1016.3 1016.1 0.0
24/12:30pm 28.8 23.4 -4.7 11 14.6 SE 15 24 8 13 1016.8 1016.6 0.0
24/12:00pm 27.3 22.4 -3.3 13 13.5 SE 13 22 7 12 1017.3 1017.1 0.0
24/11:30am 27.1 21.0 -3.9 13 13.5 ESE 19 28 10 15 1017.7 1017.5 0.0
24/11:00am 26.3 19.6 -4.1 13 13.1 E 22 28 12 15 1018.1 1017.9 0.0
24/10:30am 26.0 19.8 -2.9 14 12.7 ESE 20 32 11 17 1018.3 1018.1 0.0
24/10:00am 24.8 17.4 -3.6 15 12.2 E 26 35 14 19 1018.6 1018.3 0.0
24/09:30am 24.8 18.2 -3.6 15 12.2 ESE 22 30 12 16 1018.6 1018.3 0.0
24/09:00am 23.6 18.9 -1.5 19 11.1 ESE 13 17 7 9 1018.6 1018.3 0.0
24/08:30am 22.2 18.6 0.3 23 9.9 SE 9 13 5 7 1018.3 1018.1 0.0
24/08:00am 21.0 17.4 0.9 26 9.1 SSE 9 13 5 7 1018.1 1017.9 0.0
24/07:30am 20.2 16.6 0.9 27 8.7 SE 9 17 5 9 1017.6 1017.4 0.0
24/07:00am 16.4 14.0 5.3 47 5.3 SSE 7 13 4 7 1017.3 1017.1 0.0
24/06:30am 15.7 14.3 5.4 50 4.9 SE 2 7 1 4 1017.0 1016.8 0.0
24/06:00am 18.7 15.9 3.3 36 7.2 SE 7 9 4 5 1016.6 1016.4 0.0
24/05:30am 16.9 14.5 4.1 42 6.0 NW 6 7 3 4 1016.5 1016.3 0.0
24/05:00am 19.4 17.6 3.2 34 7.6 E 2 9 1 5 1016.3 1016.1 0.0
24/04:30am 22.3 18.6 -0.2 22 10.1 SSE 9 13 5 7 1016.2 1016.0 0.0
24/04:00am 22.7 18.2 -0.5 21 10.4 SE 13 17 7 9 1016.1 1015.9 0.0
24/03:30am 23.5 18.4 -2.1 18 11.2 SE 15 24 8 13 1016.1 1015.9 0.0
24/03:00am 24.2 18.5 -3.7 15 11.9 SE 17 26 9 14 1016.1 1015.9 0.0
24/02:30am 23.7 18.6 -1.7 18 11.2 SE 15 20 8 11 1016.1 1015.9 0.0
24/02:00am 22.2 18.5 2.2 26 9.4 SE 11 15 6 8 1016.3 1016.1 0.0
24/01:30am 23.3 19.1 1.5 24 10.2 SE 13 17 7 9 1016.3 1016.1 0.0
24/01:00am 24.5 19.4 0.9 21 11.0 SE 17 22 9 12 1016.2 1016.0 0.0
24/12:30am 24.9 20.0 2.1 22 10.9 ESE 17 24 9 13 1016.3 1016.1 0.0
24/12:00am 23.8 20.1 4.7 29 9.5 ESE 13 17 7 9 1016.5 1016.3 0.0
 
Date/Time
CST
Temp
°C
App
Temp
°C
Dew
Point
Rel
Hum
%
Delta-T
°C
Wind Press
QNH
hPa
Press
MSL
hPa
Rain
since 9 am
mm
Dir
 
Spd
km/h
Gust
km/h
Spd
kts
Gust
kts
23/11:30pm 21.3 18.3 7.8 41 7.0 ESE 13 15 7 8 1016.3 1016.1 0.0
23/11:00pm 19.7 18.8 11.3 58 4.6 ESE 7 11 4 6 1016.4 1016.2 0.0
23/10:30pm 18.7 19.5 12.6 67 3.4 CALM 0 0 0 0 1016.2 1016.0 0.0
23/10:00pm 19.2 20.2 13.2 68 3.4 CALM 0 0 0 0 1016.1 1015.9 0.0
23/09:30pm 19.5 20.5 13.2 67 3.6 CALM 0 0 0 0 1016.3 1016.1 0.0
23/09:00pm 20.3 20.9 11.9 58 4.7 CALM 0 0 0 0 1016.1 1015.9 0.0
23/08:30pm 20.8 21.4 12.0 57 4.9 CALM 0 4 0 2 1016.0 1015.8 0.0
23/08:00pm 22.6 22.4 11.7 50 6.1 SE 4 7 2 4 1015.8 1015.6 0.0
23/07:30pm 22.7 23.9 13.8 57 5.2 CALM 0 2 0 1 1015.5 1015.3 0.0
23/07:00pm 24.1 25.1 13.3 51 6.3 CALM 0 4 0 2 1015.2 1015.0 0.0
23/06:30pm 27.7 25.9 7.9 28 10.7 SSE 7 9 4 5 1014.9 1014.7 0.0
23/06:00pm 29.0 26.7 7.3 25 11.7 S 9 11 5 6 1014.7 1014.5 0.0
23/05:30pm 29.8 26.8 6.0 22 12.6 S 11 13 6 7 1014.3 1014.1 0.0
23/05:00pm 30.2 27.1 5.5 21 13.0 S 11 15 6 8 1014.3 1014.1 0.0
23/04:30pm 30.6 26.3 3.5 18 13.8 S 15 19 8 10 1014.5 1014.3 0.0
23/04:00pm 30.7 26.1 3.8 18 13.8 S 17 20 9 11 1014.6 1014.4 0.0
23/03:30pm 30.4 26.0 2.7 17 13.9 S 15 24 8 13 1014.9 1014.7 0.0
23/03:00pm 30.2 25.7 2.3 17 13.9 S 15 20 8 11 1015.2 1015.0 0.0
23/02:30pm 30.2 25.7 2.3 17 13.9 S 15 24 8 13 1015.4 1015.2 0.0
23/02:00pm 30.0 25.4 1.4 16 14.0 SSE 15 22 8 12 1016.0 1015.8 0.0
23/01:30pm 29.8 24.7 0.9 15 14.0 SSE 17 26 9 14 1016.6 1016.4 0.0
23/01:00pm 29.3 24.2 0.5 15 13.8 SE 17 24 9 13 1017.1 1016.9 0.0
23/12:30pm 28.4 22.8 0.0 16 13.4 SE 19 24 10 13 1017.7 1017.5 0.0
23/12:00pm 27.6 22.5 0.6 17 12.8 SE 17 24 9 13 1018.1 1017.9 0.0
23/11:30am 28.0 23.3 1.1 17 12.9 SE 15 24 8 13 1018.7 1018.4 0.0
23/11:00am 26.7 20.9 0.2 17 12.4 ESE 20 30 11 16 1019.2 1018.9 0.0
23/10:30am 26.1 20.4 0.8 19 11.9 ESE 20 28 11 15 1019.7 1019.4 0.0
23/10:00am 25.7 20.0 0.7 19 11.7 ESE 20 26 11 14 1019.8 1019.5 0.0
23/09:30am 25.0 19.0 1.2 21 11.2 SE 22 28 12 15 1019.7 1019.4 0.0
23/09:00am 24.6 20.0 1.8 22 10.8 SE 15 24 8 13 1019.7 1019.4 0.0
23/08:30am 23.0 21.0 6.9 35 8.3 SSE 7 11 4 6 1019.4 1019.1 0.0
23/08:00am 22.1 20.1 7.1 38 7.7 SSE 7 11 4 6 1019.1 1018.8 0.0
23/07:30am 21.2 18.8 6.9 39 7.3 SSE 9 13 5 7 1018.8 1018.5 0.0
23/07:00am 21.6 18.7 6.7 38 7.6 SSE 11 15 6 8 1018.3 1018.1 0.0
23/06:30am 21.8 18.6 6.7 37 7.7 SSE 13 15 7 8 1018.1 1017.9 0.0
23/06:00am 22.5 18.8 6.4 35 8.2 SSE 15 22 8 12 1017.9 1017.7 0.0
23/05:30am 21.5 18.9 7.6 40 7.2 S 11 15 6 8 1017.7 1017.5 0.0
23/05:00am 21.1 19.3 7.8 42 6.9 SSW 7 13 4 7 1017.6 1017.4 0.0
23/04:30am 23.1 20.3 6.8 35 8.4 S 11 20 6 11 1017.7 1017.5 0.0
23/04:00am 23.8 21.0 6.8 33 8.8 S 11 17 6 9 1017.5 1017.3 0.0
23/03:30am 24.8 20.6 5.5 29 9.8 SE 17 24 9 13 1017.2 1017.0 0.0
23/03:00am 25.2 21.0 5.6 28 10.0 SE 17 30 9 16 1017.3 1017.1 0.0
23/02:30am 25.3 20.2 6.1 29 9.9 SE 22 28 12 15 1017.0 1016.8 0.0
23/02:00am 25.5 20.9 6.4 29 9.9 SE 20 26 11 14 1017.2 1017.0 0.0
23/01:30am 25.9 21.0 6.8 29 10.0 ESE 22 30 12 16 1017.3 1017.1 0.0
23/01:00am 25.7 22.0 7.9 32 9.5 ESE 17 22 9 12 1017.2 1017.0 0.0
23/12:30am 26.1 21.8 8.0 31 9.7 ESE 20 28 11 15 1017.2 1017.0 0.0
23/12:00am 25.7 22.3 9.0 34 9.1 ESE 17 20 9 11 1017.4 1017.2 0.0
 
Date/Time
CST
Temp
°C
App
Temp
°C
Dew
Point
Rel
Hum
%
Delta-T
°C
Wind Press
QNH
hPa
Press
MSL
hPa
Rain
since 9 am
mm
Dir
 
Spd
km/h
Gust
km/h
Spd
kts
Gust
kts
22/11:30pm 26.5 23.1 9.2 33 9.5 ESE 17 20 9 11 1017.4 1017.2 0.0
22/11:00pm 24.9 23.2 12.4 45 7.2 ESE 13 15 7 8 1017.3 1017.1 0.0
22/10:30pm 27.1 25.8 12.5 40 8.5 SE 11 20 6 11 1017.2 1017.0 0.0

Other Formats:

Comma delimited format used in spreadsheet applications
http://www.bom.gov.au/fwo/IDD60801/IDD60801.94216.axf

JavaScript Object Notation format (JSON) in row-major order
http://www.bom.gov.au/fwo/IDD60801/IDD60801.94216.json